RYR78C LOWW-LBBG
Flight info
| Callsign | RYR78C |
|---|---|
| Flight time | 1h 41m |
| Altitude | 35000 |
| Route | ADAMA Z648 VEDER DCT ALAMU DCT EPARI DCT RASUB DCT BULEN L742 ESENA |
| Aircraft | B738/M-SDE2E3FGHIRWXY/LB1 |
Departure
| Time | 2026-05-08 13:15 |
|---|---|
| Airport | Vienna International Airport (LOWW) |
Arrival
| Time | 2026-05-08 14:57 |
|---|---|
| Airport | Burgas Airport (LBBG) |
| Time | Latitude | Longitude | Altitude | Speed | Heading |
|---|---|---|---|---|---|
| 2026-05-08 12:48 | 48.12054 | 16.55631 | 623 ft | 0 kts | 116° |
| 2026-05-08 13:03 | 48.12055 | 16.55629 | 609 ft | 2 kts | 116° |
| 2026-05-08 13:03 | 48.12062 | 16.55607 | 623 ft | 2 kts | 110° |
| 2026-05-08 13:04 | 48.12060 | 16.55583 | 617 ft | 2 kts | 73° |
| 2026-05-08 13:04 | 48.12055 | 16.55559 | 624 ft | 2 kts | 97° |
| 2026-05-08 13:04 | 48.12066 | 16.55547 | 616 ft | 2 kts | 196° |
| 2026-05-08 13:04 | 48.12074 | 16.55551 | 613 ft | 0 kts | 204° |
| 2026-05-08 13:09 | 48.12072 | 16.55550 | 609 ft | 1 kts | 204° |
| 2026-05-08 13:09 | 48.12049 | 16.55535 | 624 ft | 7 kts | 204° |
| 2026-05-08 13:09 | 48.11980 | 16.55484 | 615 ft | 15 kts | 207° |
| 2026-05-08 13:10 | 48.11869 | 16.55407 | 609 ft | 19 kts | 189° |
| 2026-05-08 13:10 | 48.11781 | 16.55528 | 612 ft | 19 kts | 114° |
| 2026-05-08 13:10 | 48.11723 | 16.55697 | 619 ft | 18 kts | 116° |
| 2026-05-08 13:10 | 48.11670 | 16.55863 | 622 ft | 18 kts | 106° |
| 2026-05-08 13:11 | 48.11613 | 16.56033 | 609 ft | 20 kts | 118° |
| 2026-05-08 13:11 | 48.11551 | 16.56226 | 618 ft | 21 kts | 116° |
| 2026-05-08 13:11 | 48.11489 | 16.56415 | 609 ft | 20 kts | 116° |
| 2026-05-08 13:11 | 48.11429 | 16.56598 | 621 ft | 19 kts | 116° |
| 2026-05-08 13:12 | 48.11371 | 16.56776 | 621 ft | 19 kts | 116° |
| 2026-05-08 13:12 | 48.11315 | 16.56949 | 612 ft | 18 kts | 116° |
| 2026-05-08 13:12 | 48.11259 | 16.57120 | 618 ft | 20 kts | 116° |
| 2026-05-08 13:12 | 48.11194 | 16.57321 | 619 ft | 22 kts | 116° |
| 2026-05-08 13:13 | 48.11128 | 16.57523 | 610 ft | 21 kts | 116° |
| 2026-05-08 13:13 | 48.11081 | 16.57641 | 609 ft | 8 kts | 140° |
| 2026-05-08 13:13 | 48.11025 | 16.57636 | 621 ft | 9 kts | 206° |
| 2026-05-08 13:13 | 48.10958 | 16.57587 | 616 ft | 12 kts | 206° |
| 2026-05-08 13:14 | 48.10920 | 16.57523 | 613 ft | 7 kts | 270° |
| 2026-05-08 13:14 | 48.10932 | 16.57482 | 612 ft | 0 kts | 296° |
| 2026-05-08 13:14 | 48.10932 | 16.57481 | 612 ft | 1 kts | 296° |
| 2026-05-08 13:15 | 48.11025 | 16.57194 | 611 ft | 67 kts | 296° |
| 2026-05-08 13:15 | 48.11330 | 16.56263 | 621 ft | 131 kts | 296° |
| 2026-05-08 13:15 | 48.11804 | 16.54797 | 706 ft | 174 kts | 298° |
| 2026-05-08 13:15 | 48.12315 | 16.53180 | 1574 ft | 175 kts | 288° |
| 2026-05-08 13:16 | 48.12212 | 16.51242 | 1957 ft | 209 kts | 243° |
| 2026-05-08 13:16 | 48.11148 | 16.49664 | 2471 ft | 220 kts | 210° |
| 2026-05-08 13:16 | 48.09731 | 16.48595 | 3020 ft | 237 kts | 206° |
| 2026-05-08 13:16 | 48.08207 | 16.47572 | 3662 ft | 243 kts | 200° |
| 2026-05-08 13:17 | 48.06461 | 16.47300 | 4120 ft | 265 kts | 172° |
| 2026-05-08 13:17 | 48.04620 | 16.47724 | 4948 ft | 271 kts | 173° |
| 2026-05-08 13:17 | 48.02750 | 16.48116 | 5873 ft | 271 kts | 174° |
| 2026-05-08 13:17 | 48.00875 | 16.48488 | 6786 ft | 274 kts | 174° |
| 2026-05-08 13:18 | 47.98971 | 16.48843 | 7622 ft | 277 kts | 174° |
| 2026-05-08 13:18 | 47.97080 | 16.49465 | 8359 ft | 284 kts | 157° |
| 2026-05-08 13:18 | 47.95513 | 16.51285 | 9071 ft | 292 kts | 128° |
| 2026-05-08 13:18 | 47.94686 | 16.54048 | 9788 ft | 299 kts | 99° |
| 2026-05-08 13:19 | 47.94853 | 16.57155 | 10303 ft | 309 kts | 74° |
| 2026-05-08 13:19 | 47.95556 | 16.60308 | 10474 ft | 332 kts | 70° |
| 2026-05-08 13:19 | 47.96380 | 16.63624 | 10764 ft | 348 kts | 69° |
| 2026-05-08 13:19 | 47.97222 | 16.67043 | 11351 ft | 353 kts | 70° |
| 2026-05-08 13:20 | 47.98042 | 16.70508 | 12074 ft | 355 kts | 71° |
| 2026-05-08 13:20 | 47.98849 | 16.73995 | 12798 ft | 358 kts | 71° |
| 2026-05-08 13:20 | 47.99632 | 16.77539 | 13525 ft | 361 kts | 76° |
| 2026-05-08 13:20 | 47.99814 | 16.78776 | 13766 ft | 362 kts | 82° |
| 2026-05-08 13:21 | 47.99911 | 16.79798 | 13954 ft | 362 kts | 84° |
| 2026-05-08 13:21 | 48.00106 | 16.83587 | 14604 ft | 366 kts | 87° |
| 2026-05-08 13:21 | 48.00265 | 16.87406 | 15238 ft | 371 kts | 87° |
| 2026-05-08 13:21 | 48.00442 | 16.91268 | 15878 ft | 375 kts | 86° |
| 2026-05-08 13:22 | 48.00646 | 16.95171 | 16517 ft | 379 kts | 86° |
| 2026-05-08 13:22 | 48.00865 | 16.99110 | 17147 ft | 383 kts | 86° |
| 2026-05-08 13:22 | 48.01085 | 17.03097 | 17778 ft | 387 kts | 87° |
| 2026-05-08 13:22 | 48.01023 | 17.07130 | 18391 ft | 391 kts | 97° |
| 2026-05-08 13:23 | 48.00689 | 17.11173 | 18936 ft | 394 kts | 99° |
| 2026-05-08 13:23 | 48.00315 | 17.15255 | 19459 ft | 399 kts | 99° |
| 2026-05-08 13:23 | 47.99953 | 17.19380 | 19974 ft | 403 kts | 98° |
| 2026-05-08 13:23 | 47.99611 | 17.23561 | 20490 ft | 408 kts | 98° |
| 2026-05-08 13:24 | 47.99282 | 17.27793 | 21004 ft | 412 kts | 97° |
| 2026-05-08 13:24 | 47.98954 | 17.32061 | 21510 ft | 416 kts | 97° |
| 2026-05-08 13:24 | 47.98469 | 17.36335 | 21995 ft | 419 kts | 107° |
| 2026-05-08 13:24 | 47.97605 | 17.40500 | 22506 ft | 422 kts | 110° |
| 2026-05-08 13:25 | 47.96641 | 17.44661 | 22986 ft | 426 kts | 111° |
| 2026-05-08 13:25 | 47.95651 | 17.48854 | 23450 ft | 431 kts | 111° |
| 2026-05-08 13:25 | 47.94665 | 17.53096 | 23859 ft | 435 kts | 110° |
| 2026-05-08 13:25 | 47.93687 | 17.57388 | 24246 ft | 439 kts | 110° |
| 2026-05-08 13:26 | 47.92716 | 17.61722 | 24636 ft | 442 kts | 110° |
| 2026-05-08 13:26 | 47.91744 | 17.66094 | 25012 ft | 446 kts | 110° |
| 2026-05-08 13:26 | 47.90767 | 17.70500 | 25391 ft | 449 kts | 110° |
| 2026-05-08 13:26 | 47.89782 | 17.74935 | 25758 ft | 453 kts | 110° |
| 2026-05-08 13:27 | 47.88788 | 17.79403 | 26115 ft | 456 kts | 111° |
| 2026-05-08 13:27 | 47.87782 | 17.83907 | 26466 ft | 460 kts | 111° |
| 2026-05-08 13:27 | 47.86769 | 17.88439 | 26823 ft | 463 kts | 111° |
| 2026-05-08 13:27 | 47.85748 | 17.92993 | 27169 ft | 466 kts | 111° |
| 2026-05-08 13:28 | 47.84712 | 17.97580 | 27508 ft | 469 kts | 112° |
| 2026-05-08 13:28 | 47.83499 | 18.02083 | 27831 ft | 470 kts | 117° |
| 2026-05-08 13:28 | 47.82120 | 18.06497 | 28164 ft | 472 kts | 119° |
| 2026-05-08 13:28 | 47.80686 | 18.10907 | 28490 ft | 474 kts | 120° |
| 2026-05-08 13:29 | 47.79251 | 18.15339 | 28806 ft | 477 kts | 119° |
| 2026-05-08 13:29 | 47.77826 | 18.19818 | 29111 ft | 480 kts | 119° |
| 2026-05-08 13:29 | 47.76432 | 18.24264 | 29409 ft | 483 kts | 119° |
| 2026-05-08 13:29 | 47.74997 | 18.28871 | 29707 ft | 486 kts | 117° |
| 2026-05-08 13:30 | 47.73833 | 18.33548 | 29977 ft | 493 kts | 109° |
| 2026-05-08 13:30 | 47.73117 | 18.38558 | 30235 ft | 499 kts | 99° |
| 2026-05-08 13:30 | 47.72726 | 18.43757 | 30564 ft | 500 kts | 98° |
| 2026-05-08 13:30 | 47.72386 | 18.48887 | 30945 ft | 499 kts | 98° |
| 2026-05-08 13:31 | 47.72047 | 18.53940 | 31294 ft | 498 kts | 98° |
| 2026-05-08 13:31 | 47.71684 | 18.59046 | 31621 ft | 498 kts | 98° |
| 2026-05-08 13:31 | 47.71298 | 18.64154 | 31950 ft | 498 kts | 99° |
| 2026-05-08 13:31 | 47.70898 | 18.69256 | 32289 ft | 497 kts | 99° |
| 2026-05-08 13:32 | 47.70492 | 18.74340 | 32628 ft | 496 kts | 99° |
| 2026-05-08 13:32 | 47.70083 | 18.79430 | 32945 ft | 496 kts | 99° |
| 2026-05-08 13:32 | 47.69675 | 18.84519 | 33275 ft | 496 kts | 99° |
| 2026-05-08 13:32 | 47.69262 | 18.89600 | 33570 ft | 495 kts | 101° |
| 2026-05-08 13:33 | 47.68534 | 18.94568 | 33840 ft | 492 kts | 111° |
| 2026-05-08 13:33 | 47.67311 | 18.99273 | 34172 ft | 486 kts | 120° |
| 2026-05-08 13:33 | 47.65706 | 19.03630 | 34501 ft | 477 kts | 129° |
| 2026-05-08 13:33 | 47.63757 | 19.07563 | 34801 ft | 472 kts | 133° |
| 2026-05-08 13:34 | 47.61751 | 19.11406 | 35037 ft | 472 kts | 133° |
| 2026-05-08 13:34 | 47.59721 | 19.15256 | 35031 ft | 476 kts | 133° |
| 2026-05-08 13:34 | 47.55651 | 19.23002 | 35040 ft | 476 kts | 133° |
| 2026-05-08 13:35 | 47.51646 | 19.30710 | 35040 ft | 470 kts | 133° |
| 2026-05-08 13:35 | 47.47672 | 19.38377 | 35043 ft | 469 kts | 133° |
| 2026-05-08 13:36 | 47.43702 | 19.46022 | 35046 ft | 469 kts | 133° |
| 2026-05-08 13:36 | 47.39728 | 19.53651 | 35037 ft | 469 kts | 133° |
| 2026-05-08 13:37 | 47.35750 | 19.61264 | 35038 ft | 469 kts | 133° |
| 2026-05-08 13:37 | 47.31760 | 19.68878 | 35032 ft | 469 kts | 133° |
| 2026-05-08 13:38 | 47.27767 | 19.76478 | 35029 ft | 469 kts | 133° |
| 2026-05-08 13:38 | 47.23763 | 19.84078 | 35027 ft | 470 kts | 133° |
| 2026-05-08 13:39 | 47.19782 | 19.91614 | 35027 ft | 470 kts | 133° |
| 2026-05-08 13:39 | 47.15769 | 19.99189 | 35022 ft | 470 kts | 133° |
| 2026-05-08 13:40 | 47.11752 | 20.06752 | 35022 ft | 469 kts | 133° |
| 2026-05-08 13:40 | 47.07732 | 20.14297 | 35023 ft | 469 kts | 133° |
| 2026-05-08 13:41 | 47.03714 | 20.21821 | 35018 ft | 468 kts | 133° |
| 2026-05-08 13:41 | 46.99698 | 20.29319 | 35020 ft | 467 kts | 133° |
| 2026-05-08 13:42 | 46.95684 | 20.36792 | 35021 ft | 466 kts | 133° |
| 2026-05-08 13:42 | 46.91673 | 20.44242 | 35025 ft | 465 kts | 133° |
| 2026-05-08 13:43 | 46.87667 | 20.51660 | 35029 ft | 464 kts | 133° |
| 2026-05-08 13:43 | 46.83666 | 20.59049 | 35031 ft | 463 kts | 133° |
| 2026-05-08 13:44 | 46.79668 | 20.66413 | 35028 ft | 462 kts | 133° |
| 2026-05-08 13:44 | 46.75672 | 20.73755 | 35027 ft | 461 kts | 133° |
| 2026-05-08 13:45 | 46.71678 | 20.81074 | 35027 ft | 461 kts | 133° |
| 2026-05-08 13:45 | 46.67686 | 20.88367 | 35037 ft | 460 kts | 133° |
| 2026-05-08 13:46 | 46.64372 | 20.94409 | 35031 ft | 460 kts | 133° |
| 2026-05-08 13:46 | 46.60375 | 21.01678 | 35028 ft | 459 kts | 133° |
| 2026-05-08 13:47 | 46.56382 | 21.08921 | 35027 ft | 459 kts | 134° |
| 2026-05-08 13:47 | 46.52389 | 21.16145 | 35031 ft | 458 kts | 134° |
| 2026-05-08 13:48 | 46.48390 | 21.23360 | 35029 ft | 458 kts | 134° |
| 2026-05-08 13:48 | 46.44394 | 21.30552 | 35027 ft | 458 kts | 134° |
| 2026-05-08 13:49 | 46.40395 | 21.37730 | 35026 ft | 458 kts | 134° |
| 2026-05-08 13:49 | 46.36392 | 21.44897 | 35024 ft | 458 kts | 134° |
| 2026-05-08 13:50 | 46.32385 | 21.52054 | 35021 ft | 457 kts | 134° |
| 2026-05-08 13:50 | 46.28374 | 21.59198 | 35025 ft | 457 kts | 134° |
| 2026-05-08 13:51 | 46.24361 | 21.66327 | 35030 ft | 457 kts | 134° |
| 2026-05-08 13:51 | 46.20342 | 21.73449 | 35017 ft | 458 kts | 134° |
| 2026-05-08 13:52 | 46.16321 | 21.80557 | 35025 ft | 457 kts | 134° |
| 2026-05-08 13:52 | 46.12292 | 21.87660 | 35019 ft | 458 kts | 134° |
| 2026-05-08 13:53 | 46.08257 | 21.94755 | 35016 ft | 457 kts | 134° |
| 2026-05-08 13:53 | 46.04222 | 22.01834 | 35015 ft | 457 kts | 134° |
| 2026-05-08 13:54 | 46.00183 | 22.08899 | 35019 ft | 457 kts | 134° |
| 2026-05-08 13:54 | 45.96141 | 22.15955 | 35014 ft | 457 kts | 134° |
| 2026-05-08 13:55 | 45.92100 | 22.22989 | 35009 ft | 457 kts | 134° |
| 2026-05-08 13:56 | 45.86029 | 22.33523 | 35019 ft | 456 kts | 134° |
| 2026-05-08 13:56 | 45.82004 | 22.40487 | 35019 ft | 456 kts | 134° |
| 2026-05-08 13:57 | 45.77949 | 22.47483 | 35007 ft | 456 kts | 134° |
| 2026-05-08 13:57 | 45.73893 | 22.54465 | 35000 ft | 456 kts | 134° |
| 2026-05-08 13:58 | 45.69836 | 22.61430 | 35016 ft | 455 kts | 134° |
| 2026-05-08 13:58 | 45.65779 | 22.68379 | 35022 ft | 455 kts | 134° |
| 2026-05-08 13:59 | 45.61721 | 22.75311 | 35019 ft | 455 kts | 134° |
| 2026-05-08 13:59 | 45.57660 | 22.82231 | 35015 ft | 454 kts | 134° |
| 2026-05-08 14:00 | 45.53600 | 22.89134 | 35019 ft | 454 kts | 134° |
| 2026-05-08 14:00 | 45.49540 | 22.96019 | 35017 ft | 453 kts | 135° |
| 2026-05-08 14:01 | 45.45482 | 23.02884 | 35017 ft | 452 kts | 135° |
| 2026-05-08 14:01 | 45.41427 | 23.09726 | 35026 ft | 452 kts | 135° |
| 2026-05-08 14:02 | 45.37374 | 23.16549 | 35012 ft | 451 kts | 135° |
| 2026-05-08 14:02 | 45.33318 | 23.23359 | 35017 ft | 452 kts | 135° |
| 2026-05-08 14:03 | 45.29250 | 23.30174 | 35008 ft | 452 kts | 135° |
| 2026-05-08 14:03 | 45.25175 | 23.36983 | 35000 ft | 453 kts | 135° |
| 2026-05-08 14:04 | 45.21096 | 23.43785 | 34999 ft | 453 kts | 135° |
| 2026-05-08 14:04 | 45.17005 | 23.50587 | 35000 ft | 453 kts | 135° |
| 2026-05-08 14:05 | 45.12910 | 23.57381 | 34999 ft | 453 kts | 135° |
| 2026-05-08 14:05 | 45.08808 | 23.64170 | 34993 ft | 454 kts | 135° |
| 2026-05-08 14:06 | 45.04705 | 23.70945 | 34991 ft | 453 kts | 135° |
| 2026-05-08 14:06 | 45.00600 | 23.77706 | 34989 ft | 453 kts | 135° |
| 2026-05-08 14:07 | 44.96496 | 23.84450 | 34982 ft | 452 kts | 135° |
| 2026-05-08 14:07 | 44.92396 | 23.91170 | 34987 ft | 451 kts | 135° |
| 2026-05-08 14:08 | 44.88299 | 23.97871 | 34975 ft | 450 kts | 135° |
| 2026-05-08 14:08 | 44.84208 | 24.04543 | 34974 ft | 449 kts | 135° |
| 2026-05-08 14:09 | 44.80125 | 24.11189 | 34982 ft | 448 kts | 135° |
| 2026-05-08 14:09 | 44.76041 | 24.17820 | 34977 ft | 448 kts | 135° |
| 2026-05-08 14:10 | 44.71956 | 24.24437 | 34982 ft | 448 kts | 135° |
| 2026-05-08 14:10 | 44.67868 | 24.31043 | 34978 ft | 448 kts | 135° |
| 2026-05-08 14:11 | 44.63809 | 24.37588 | 34984 ft | 447 kts | 135° |
| 2026-05-08 14:11 | 44.59714 | 24.44175 | 34987 ft | 447 kts | 135° |
| 2026-05-08 14:12 | 44.55619 | 24.50746 | 34987 ft | 447 kts | 135° |
| 2026-05-08 14:12 | 44.51519 | 24.57311 | 34986 ft | 447 kts | 135° |
| 2026-05-08 14:13 | 44.47417 | 24.63863 | 34991 ft | 448 kts | 135° |
| 2026-05-08 14:13 | 44.43305 | 24.70417 | 34982 ft | 448 kts | 135° |
| 2026-05-08 14:14 | 44.39186 | 24.76965 | 34985 ft | 448 kts | 135° |
| 2026-05-08 14:14 | 44.35064 | 24.83505 | 34982 ft | 448 kts | 135° |
| 2026-05-08 14:15 | 44.30941 | 24.90031 | 34987 ft | 448 kts | 135° |
| 2026-05-08 14:15 | 44.26810 | 24.96555 | 34987 ft | 448 kts | 135° |
| 2026-05-08 14:16 | 44.22677 | 25.03066 | 34985 ft | 448 kts | 135° |
| 2026-05-08 14:16 | 44.18543 | 25.09563 | 34989 ft | 448 kts | 135° |
| 2026-05-08 14:17 | 44.14406 | 25.16052 | 34990 ft | 448 kts | 135° |
| 2026-05-08 14:17 | 44.10266 | 25.22530 | 34989 ft | 448 kts | 135° |
| 2026-05-08 14:18 | 44.06122 | 25.29001 | 34985 ft | 448 kts | 135° |
| 2026-05-08 14:18 | 44.01978 | 25.35468 | 34986 ft | 448 kts | 134° |
| 2026-05-08 14:19 | 43.97906 | 25.41855 | 34975 ft | 437 kts | 134° |
| 2026-05-08 14:19 | 43.93871 | 25.48176 | 34995 ft | 441 kts | 135° |
| 2026-05-08 14:20 | 43.89748 | 25.54611 | 34997 ft | 451 kts | 134° |
| 2026-05-08 14:20 | 43.85565 | 25.61130 | 34984 ft | 453 kts | 134° |
| 2026-05-08 14:21 | 43.81374 | 25.67649 | 34975 ft | 451 kts | 135° |
| 2026-05-08 14:21 | 43.79304 | 25.70867 | 34750 ft | 443 kts | 135° |
| 2026-05-08 14:21 | 43.77262 | 25.74035 | 34277 ft | 441 kts | 134° |
| 2026-05-08 14:21 | 43.75215 | 25.77205 | 33661 ft | 441 kts | 134° |
| 2026-05-08 14:22 | 43.73167 | 25.80371 | 33091 ft | 444 kts | 134° |
| 2026-05-08 14:22 | 43.71102 | 25.83559 | 32501 ft | 447 kts | 134° |
| 2026-05-08 14:22 | 43.69023 | 25.86766 | 31913 ft | 447 kts | 134° |
| 2026-05-08 14:22 | 43.66961 | 25.89946 | 31425 ft | 443 kts | 134° |
| 2026-05-08 14:23 | 43.64913 | 25.93102 | 31049 ft | 438 kts | 134° |
| 2026-05-08 14:23 | 43.62891 | 25.96216 | 30687 ft | 433 kts | 134° |
| 2026-05-08 14:23 | 43.60892 | 25.99288 | 30281 ft | 429 kts | 134° |
| 2026-05-08 14:23 | 43.58902 | 26.02343 | 29764 ft | 427 kts | 134° |
| 2026-05-08 14:24 | 43.56917 | 26.05385 | 29225 ft | 425 kts | 134° |
| 2026-05-08 14:24 | 43.54941 | 26.08398 | 28672 ft | 423 kts | 136° |
| 2026-05-08 14:24 | 43.52752 | 26.11061 | 28117 ft | 417 kts | 147° |
| 2026-05-08 14:24 | 43.50368 | 26.13312 | 27592 ft | 415 kts | 148° |
| 2026-05-08 14:25 | 43.47964 | 26.15509 | 27051 ft | 413 kts | 149° |
| 2026-05-08 14:25 | 43.45571 | 26.17683 | 26517 ft | 412 kts | 149° |
| 2026-05-08 14:25 | 43.43189 | 26.19855 | 26009 ft | 410 kts | 148° |
| 2026-05-08 14:25 | 43.40821 | 26.22029 | 25498 ft | 408 kts | 148° |
| 2026-05-08 14:26 | 43.38467 | 26.24203 | 25021 ft | 406 kts | 148° |
| 2026-05-08 14:26 | 43.36134 | 26.26364 | 24577 ft | 403 kts | 148° |
| 2026-05-08 14:26 | 43.33851 | 26.28482 | 24143 ft | 400 kts | 148° |
| 2026-05-08 14:26 | 43.31546 | 26.30622 | 23661 ft | 399 kts | 148° |
| 2026-05-08 14:27 | 43.29220 | 26.32779 | 23067 ft | 398 kts | 148° |
| 2026-05-08 14:27 | 43.26923 | 26.34907 | 22492 ft | 397 kts | 148° |
| 2026-05-08 14:27 | 43.24645 | 26.37017 | 21918 ft | 392 kts | 148° |
| 2026-05-08 14:27 | 43.22430 | 26.39067 | 21378 ft | 387 kts | 148° |
| 2026-05-08 14:28 | 43.20188 | 26.41140 | 20843 ft | 381 kts | 148° |
| 2026-05-08 14:28 | 43.18007 | 26.43155 | 20326 ft | 376 kts | 148° |
| 2026-05-08 14:28 | 43.15852 | 26.45143 | 19845 ft | 371 kts | 148° |
| 2026-05-08 14:28 | 43.13732 | 26.47099 | 19397 ft | 365 kts | 148° |
| 2026-05-08 14:29 | 43.11681 | 26.49023 | 18944 ft | 359 kts | 147° |
| 2026-05-08 14:29 | 43.09621 | 26.50919 | 18515 ft | 354 kts | 148° |
| 2026-05-08 14:29 | 43.07584 | 26.52782 | 18042 ft | 350 kts | 148° |
| 2026-05-08 14:29 | 43.05572 | 26.54621 | 17541 ft | 346 kts | 148° |
| 2026-05-08 14:30 | 43.03578 | 26.56444 | 17053 ft | 345 kts | 148° |
| 2026-05-08 14:30 | 43.01588 | 26.58264 | 16575 ft | 345 kts | 147° |
| 2026-05-08 14:30 | 42.99597 | 26.60085 | 16098 ft | 344 kts | 147° |
| 2026-05-08 14:30 | 42.97606 | 26.61907 | 15632 ft | 344 kts | 147° |
| 2026-05-08 14:31 | 42.95624 | 26.63720 | 15175 ft | 343 kts | 147° |
| 2026-05-08 14:31 | 42.93642 | 26.65531 | 14693 ft | 340 kts | 147° |
| 2026-05-08 14:31 | 42.92350 | 26.66712 | 14433 ft | 335 kts | 147° |
| 2026-05-08 14:32 | 42.88548 | 26.70184 | 13860 ft | 316 kts | 147° |
| 2026-05-08 14:32 | 42.86764 | 26.71812 | 13526 ft | 309 kts | 147° |
| 2026-05-08 14:32 | 42.84995 | 26.73425 | 13179 ft | 303 kts | 148° |
| 2026-05-08 14:32 | 42.83256 | 26.75009 | 12836 ft | 299 kts | 148° |
| 2026-05-08 14:33 | 42.81530 | 26.76578 | 12490 ft | 299 kts | 148° |
| 2026-05-08 14:33 | 42.79806 | 26.78145 | 12157 ft | 297 kts | 148° |
| 2026-05-08 14:33 | 42.78083 | 26.79711 | 11830 ft | 299 kts | 148° |
| 2026-05-08 14:33 | 42.76331 | 26.81300 | 11492 ft | 306 kts | 148° |
| 2026-05-08 14:34 | 42.74544 | 26.82920 | 11129 ft | 310 kts | 148° |
| 2026-05-08 14:34 | 42.72764 | 26.84536 | 10773 ft | 305 kts | 148° |
| 2026-05-08 14:34 | 42.71016 | 26.86121 | 10424 ft | 299 kts | 148° |
| 2026-05-08 14:34 | 42.69313 | 26.87664 | 10273 ft | 287 kts | 148° |
| 2026-05-08 14:35 | 42.67686 | 26.89138 | 10147 ft | 275 kts | 148° |
| 2026-05-08 14:35 | 42.66126 | 26.90550 | 10031 ft | 265 kts | 148° |
| 2026-05-08 14:35 | 42.64596 | 26.91933 | 9803 ft | 265 kts | 148° |
| 2026-05-08 14:35 | 42.63058 | 26.93321 | 9531 ft | 267 kts | 148° |
| 2026-05-08 14:36 | 42.61502 | 26.94724 | 9250 ft | 271 kts | 148° |
| 2026-05-08 14:36 | 42.59917 | 26.96153 | 8961 ft | 275 kts | 148° |
| 2026-05-08 14:36 | 42.58325 | 26.97590 | 8668 ft | 274 kts | 148° |
| 2026-05-08 14:36 | 42.56750 | 26.99009 | 8359 ft | 269 kts | 148° |
| 2026-05-08 14:37 | 42.55203 | 27.00404 | 8062 ft | 266 kts | 149° |
| 2026-05-08 14:37 | 42.53674 | 27.01779 | 7772 ft | 262 kts | 149° |
| 2026-05-08 14:37 | 42.52166 | 27.03137 | 7490 ft | 258 kts | 149° |
| 2026-05-08 14:37 | 42.50681 | 27.04473 | 7219 ft | 256 kts | 149° |
| 2026-05-08 14:38 | 42.49194 | 27.05809 | 6960 ft | 258 kts | 149° |
| 2026-05-08 14:38 | 42.47843 | 27.07019 | 6719 ft | 262 kts | 149° |
| 2026-05-08 14:38 | 42.46435 | 27.08283 | 6572 ft | 261 kts | 149° |
| 2026-05-08 14:38 | 42.44932 | 27.09634 | 6449 ft | 258 kts | 149° |
| 2026-05-08 14:39 | 42.43468 | 27.10949 | 6315 ft | 247 kts | 149° |
| 2026-05-08 14:39 | 42.42066 | 27.12206 | 6199 ft | 237 kts | 149° |
| 2026-05-08 14:39 | 42.40724 | 27.13410 | 6094 ft | 224 kts | 150° |
| 2026-05-08 14:39 | 42.39541 | 27.14704 | 5958 ft | 214 kts | 138° |
| 2026-05-08 14:40 | 42.38516 | 27.16146 | 5781 ft | 212 kts | 137° |
| 2026-05-08 14:40 | 42.37501 | 27.17595 | 5567 ft | 211 kts | 137° |
| 2026-05-08 14:40 | 42.36491 | 27.19023 | 5350 ft | 209 kts | 137° |
| 2026-05-08 14:40 | 42.35602 | 27.20579 | 5108 ft | 214 kts | 113° |
| 2026-05-08 14:41 | 42.35488 | 27.22562 | 4911 ft | 217 kts | 75° |
| 2026-05-08 14:41 | 42.36279 | 27.24260 | 4692 ft | 214 kts | 43° |
| 2026-05-08 14:41 | 42.37353 | 27.25643 | 4488 ft | 216 kts | 44° |
| 2026-05-08 14:41 | 42.38442 | 27.27063 | 4283 ft | 219 kts | 44° |
| 2026-05-08 14:42 | 42.39526 | 27.28476 | 4030 ft | 219 kts | 44° |
| 2026-05-08 14:42 | 42.40624 | 27.29909 | 3821 ft | 214 kts | 43° |
| 2026-05-08 14:42 | 42.41674 | 27.31287 | 3575 ft | 211 kts | 44° |
| 2026-05-08 14:42 | 42.42712 | 27.32649 | 3372 ft | 206 kts | 44° |
| 2026-05-08 14:43 | 42.43729 | 27.33985 | 3156 ft | 202 kts | 44° |
| 2026-05-08 14:43 | 42.44720 | 27.35289 | 2943 ft | 196 kts | 44° |
| 2026-05-08 14:43 | 42.45685 | 27.36562 | 2738 ft | 191 kts | 44° |
| 2026-05-08 14:43 | 42.46644 | 27.37817 | 2452 ft | 197 kts | 44° |
| 2026-05-08 14:44 | 42.47652 | 27.39146 | 2427 ft | 210 kts | 44° |
| 2026-05-08 14:44 | 42.48712 | 27.40551 | 2345 ft | 214 kts | 44° |
| 2026-05-08 14:44 | 42.49798 | 27.41932 | 2062 ft | 211 kts | 42° |
| 2026-05-08 14:44 | 42.50857 | 27.43258 | 1752 ft | 205 kts | 45° |
| 2026-05-08 14:45 | 42.51866 | 27.44608 | 1356 ft | 203 kts | 45° |
| 2026-05-08 14:45 | 42.52805 | 27.45940 | 1020 ft | 190 kts | 46° |
| 2026-05-08 14:45 | 42.53747 | 27.47143 | 659 ft | 177 kts | 44° |
| 2026-05-08 14:45 | 42.54555 | 27.48239 | 474 ft | 155 kts | 43° |
| 2026-05-08 14:46 | 42.55299 | 27.49225 | 463 ft | 151 kts | 44° |
| 2026-05-08 14:46 | 42.56074 | 27.50180 | 826 ft | 155 kts | 38° |
| 2026-05-08 14:46 | 42.57002 | 27.51233 | 944 ft | 191 kts | 40° |
| 2026-05-08 14:46 | 42.58110 | 27.52410 | 1283 ft | 209 kts | 37° |
| 2026-05-08 14:47 | 42.59277 | 27.53579 | 1650 ft | 204 kts | 40° |
| 2026-05-08 14:47 | 42.60354 | 27.54796 | 2382 ft | 196 kts | 44° |
| 2026-05-08 14:47 | 42.61124 | 27.56266 | 3167 ft | 188 kts | 57° |
| 2026-05-08 14:47 | 42.61958 | 27.57751 | 3366 ft | 219 kts | 49° |
| 2026-05-08 14:48 | 42.63005 | 27.59322 | 3316 ft | 223 kts | 46° |
| 2026-05-08 14:48 | 42.64076 | 27.60822 | 3266 ft | 219 kts | 44° |
| 2026-05-08 14:48 | 42.65138 | 27.62264 | 3219 ft | 214 kts | 42° |
| 2026-05-08 14:48 | 42.66385 | 27.63362 | 3252 ft | 216 kts | 28° |
| 2026-05-08 14:49 | 42.67416 | 27.64818 | 3224 ft | 211 kts | 65° |
| 2026-05-08 14:49 | 42.67623 | 27.66676 | 3160 ft | 193 kts | 105° |
| 2026-05-08 14:49 | 42.67001 | 27.68159 | 3053 ft | 177 kts | 147° |
| 2026-05-08 14:49 | 42.65910 | 27.68652 | 2925 ft | 163 kts | 189° |
| 2026-05-08 14:50 | 42.64924 | 27.67990 | 2837 ft | 160 kts | 223° |
| 2026-05-08 14:50 | 42.64010 | 27.67095 | 2747 ft | 164 kts | 220° |
| 2026-05-08 14:50 | 42.63184 | 27.66041 | 2584 ft | 161 kts | 224° |
| 2026-05-08 14:50 | 42.62393 | 27.65017 | 2444 ft | 153 kts | 224° |
| 2026-05-08 14:51 | 42.61635 | 27.64027 | 2304 ft | 150 kts | 224° |
| 2026-05-08 14:51 | 42.60869 | 27.63020 | 2200 ft | 157 kts | 224° |
| 2026-05-08 14:51 | 42.60071 | 27.61983 | 2092 ft | 160 kts | 224° |
| 2026-05-08 14:51 | 42.59266 | 27.60927 | 1971 ft | 161 kts | 224° |
| 2026-05-08 14:52 | 42.58479 | 27.59875 | 1821 ft | 157 kts | 224° |
| 2026-05-08 14:52 | 42.56922 | 27.57787 | 1603 ft | 160 kts | 224° |
| 2026-05-08 14:52 | 42.56135 | 27.56723 | 1535 ft | 160 kts | 224° |
| 2026-05-08 14:53 | 42.55348 | 27.55670 | 1470 ft | 158 kts | 224° |
| 2026-05-08 14:53 | 42.54572 | 27.54629 | 1365 ft | 154 kts | 224° |
| 2026-05-08 14:53 | 42.53832 | 27.53637 | 1315 ft | 145 kts | 224° |
| 2026-05-08 14:53 | 42.53126 | 27.52691 | 1220 ft | 142 kts | 224° |
| 2026-05-08 14:54 | 42.52419 | 27.51743 | 1120 ft | 145 kts | 224° |
| 2026-05-08 14:54 | 42.51702 | 27.50775 | 1021 ft | 146 kts | 224° |
| 2026-05-08 14:54 | 42.50995 | 27.49815 | 1000 ft | 144 kts | 223° |
| 2026-05-08 14:54 | 42.50589 | 27.48586 | 922 ft | 154 kts | 275° |
| 2026-05-08 14:55 | 42.51187 | 27.47444 | 739 ft | 155 kts | 339° |
| 2026-05-08 14:55 | 42.52226 | 27.47239 | 700 ft | 150 kts | 357° |
| 2026-05-08 14:55 | 42.53277 | 27.47175 | 647 ft | 152 kts | 359° |
| 2026-05-08 14:55 | 42.54249 | 27.47555 | 587 ft | 147 kts | 44° |
| 2026-05-08 14:56 | 42.54895 | 27.48635 | 416 ft | 148 kts | 45° |
| 2026-05-08 14:56 | 42.55596 | 27.49621 | 283 ft | 143 kts | 46° |
| 2026-05-08 14:56 | 42.56298 | 27.50567 | 175 ft | 141 kts | 38° |
| 2026-05-08 14:56 | 42.56957 | 27.51454 | 173 ft | 120 kts | 44° |
| 2026-05-08 14:57 | 42.57447 | 27.52103 | 172 ft | 84 kts | 44° |
| 2026-05-08 14:57 | 42.57662 | 27.52486 | 174 ft | 30 kts | 87° |
| 2026-05-08 14:57 | 42.57619 | 27.52681 | 173 ft | 18 kts | 153° |
| 2026-05-08 14:57 | 42.57555 | 27.52657 | 173 ft | 10 kts | 216° |
| 2026-05-08 14:58 | 42.57496 | 27.52595 | 173 ft | 12 kts | 219° |
| 2026-05-08 14:58 | 42.57418 | 27.52503 | 173 ft | 18 kts | 223° |
| 2026-05-08 14:58 | 42.57310 | 27.52375 | 173 ft | 23 kts | 219° |
| 2026-05-08 14:58 | 42.57187 | 27.52234 | 173 ft | 23 kts | 220° |
| 2026-05-08 14:59 | 42.57066 | 27.52096 | 173 ft | 22 kts | 220° |
| 2026-05-08 14:59 | 42.56836 | 27.51831 | 173 ft | 21 kts | 227° |
| 2026-05-08 14:59 | 42.56756 | 27.51706 | 173 ft | 14 kts | 228° |
| 2026-05-08 15:00 | 42.56698 | 27.51616 | 173 ft | 8 kts | 229° |
| 2026-05-08 15:00 | 42.56661 | 27.51601 | 173 ft | 0 kts | 142° |
| 2026-05-08 15:00 | 42.56656 | 27.51607 | 173 ft | 3 kts | 133° |
| 2026-05-08 15:00 | 42.56651 | 27.51639 | 173 ft | 2 kts | 88° |
| 2026-05-08 15:01 | 42.56652 | 27.51646 | 173 ft | 0 kts | 89° |